Time;durP1;ratioP1;P1;durP2;ratioP2;P2;SDS_P1;SDS_P2;PMS_P1;PMS_P2;Temp;Humidity;BMP_temperature;BMP_pressure;BME280_temperature;BME280_humidity;BME280_pressure;Samples;Min_cycle;Max_cycle;Signal;HPM_P1;HPM_P2
2023/02/06 00:01:16;;;;;;;34.67;13.80;;;2.40;99.90;;;;;;5056228;28;20226;-83
2023/02/06 00:03:42;;;;;;;32.43;14.33;;;2.40;99.90;;;;;;5055265;28;20211;-84
2023/02/06 00:06:11;;;;;;;35.20;16.47;;;2.40;99.90;;;;;;5056901;28;20191;-84
2023/02/06 00:08:37;;;;;;;35.80;15.80;;;2.50;99.90;;;;;;5055773;28;20199;-84
2023/02/06 00:11:06;;;;;;;36.80;15.70;;;2.40;99.90;;;;;;5056146;28;20235;-83
2023/02/06 00:13:33;;;;;;;34.83;15.73;;;2.40;99.90;;;;;;5055067;28;20207;-83
2023/02/06 00:16:00;;;;;;;32.70;14.13;;;2.50;99.90;;;;;;5056045;28;20218;-82
2023/02/06 00:18:27;;;;;;;34.00;16.23;;;2.40;99.90;;;;;;5055787;28;20229;-84
2023/02/06 00:20:54;;;;;;;36.07;16.43;;;2.40;99.90;;;;;;5056114;28;20230;-84
2023/02/06 00:23:22;;;;;;;35.97;15.10;;;2.50;99.90;;;;;;5056098;28;20215;-83
2023/02/06 00:25:49;;;;;;;38.27;16.27;;;2.50;99.90;;;;;;5055515;28;20193;-82
2023/02/06 00:28:16;;;;;;;35.77;14.70;;;2.50;99.90;;;;;;5053956;28;20738;-83
2023/02/06 00:30:46;;;;;;;33.00;14.93;;;2.50;99.90;;;;;;5055452;28;20237;-83
2023/02/06 00:33:13;;;;;;;33.80;14.80;;;2.40;99.90;;;;;;5054822;28;20265;-84
2023/02/06 00:35:40;;;;;;;36.20;16.33;;;2.40;99.90;;;;;;5055846;28;20225;-84
2023/02/06 00:38:06;;;;;;;36.00;16.60;;;2.50;99.90;;;;;;5059203;28;20221;-84
2023/02/06 00:40:34;;;;;;;36.10;14.80;;;2.50;99.90;;;;;;5059451;28;20203;-84
2023/02/06 00:43:01;;;;;;;29.17;14.07;;;2.50;99.90;;;;;;5056647;28;20207;-83
2023/02/06 00:45:28;;;;;;;31.27;15.47;;;2.60;99.90;;;;;;5058040;28;20292;-82
2023/02/06 00:47:55;;;;;;;33.43;14.73;;;2.50;99.90;;;;;;5059544;28;20191;-83
2023/02/06 00:50:22;;;;;;;32.93;14.47;;;2.50;99.90;;;;;;5060578;28;20199;-84
2023/02/06 00:52:48;;;;;;;33.07;15.13;;;2.50;99.90;;;;;;5058547;28;20729;-83
2023/02/06 00:55:15;;;;;;;32.43;15.17;;;2.50;99.90;;;;;;5059541;28;20215;-84
2023/02/06 00:57:44;;;;;;;32.90;15.03;;;2.50;99.90;;;;;;5059722;28;20613;-83
2023/02/06 01:00:12;;;;;;;35.83;15.60;;;2.50;99.90;;;;;;5053063;28;20637;-83
2023/02/06 01:02:38;;;;;;;33.07;15.03;;;2.50;99.90;;;;;;5055131;28;20219;-84
2023/02/06 01:05:06;;;;;;;31.57;15.50;;;2.60;99.90;;;;;;5059380;28;20316;-83
2023/02/06 01:07:33;;;;;;;32.83;14.33;;;2.50;99.90;;;;;;5058579;28;20199;-84
2023/02/06 01:10:00;;;;;;;31.33;14.87;;;2.50;99.90;;;;;;5050785;28;20203;-84
2023/02/06 01:12:26;;;;;;;31.90;14.07;;;2.50;99.90;;;;;;5058535;28;20219;-84
2023/02/06 01:14:55;;;;;;;32.70;13.40;;;2.50;99.90;;;;;;5057752;28;20211;-84
2023/02/06 01:17:21;;;;;;;28.93;12.63;;;2.50;99.90;;;;;;5058729;28;20290;-82
2023/02/06 01:19:48;;;;;;;30.13;12.67;;;2.50;99.90;;;;;;5058256;28;20211;-83
2023/02/06 01:22:15;;;;;;;27.90;12.83;;;2.50;99.90;;;;;;5057733;28;20210;-84
2023/02/06 01:24:42;;;;;;;26.93;12.43;;;2.50;99.90;;;;;;5037881;28;20294;-84
2023/02/06 01:27:08;;;;;;;27.37;13.40;;;2.50;99.90;;;;;;5038585;28;20652;-83
2023/02/06 01:29:35;;;;;;;25.93;12.83;;;2.50;99.90;;;;;;5052078;28;20313;-83
2023/02/06 01:32:04;;;;;;;28.80;12.10;;;2.50;99.90;;;;;;5057566;28;20233;-84
2023/02/06 01:34:31;;;;;;;29.83;12.60;;;2.50;99.90;;;;;;5058557;28;20207;-83
2023/02/06 01:36:57;;;;;;;29.77;12.70;;;2.50;99.90;;;;;;5058240;28;20227;-84
2023/02/06 01:39:24;;;;;;;25.80;11.93;;;2.50;99.90;;;;;;5065684;28;20212;-84
2023/02/06 01:41:51;;;;;;;24.27;11.20;;;2.40;99.90;;;;;;5058256;28;20219;-82
2023/02/06 01:44:21;;;;;;;27.57;12.00;;;2.40;99.90;;;;;;5065734;28;20710;-83
2023/02/06 01:46:50;;;;;;;26.80;12.27;;;2.50;99.90;;;;;;5035374;28;20251;-83
2023/02/06 01:49:23;;;;;;;27.10;13.07;;;2.50;99.90;;;;;;5057365;28;20282;-84
2023/02/06 01:51:53;;;;;;;27.40;12.80;;;2.40;99.90;;;;;;5057214;28;20221;-82
2023/02/06 01:54:20;;;;;;;28.93;12.87;;;2.50;99.90;;;;;;5057298;28;20203;-84
2023/02/06 01:56:52;;;;;;;31.90;12.90;;;2.50;99.90;;;;;;5056027;28;20223;-83
2023/02/06 01:59:24;;;;;;;28.03;12.60;;;2.50;99.90;;;;;;5056681;28;20205;-83
2023/02/06 02:01:50;;;;;;;30.23;14.10;;;2.50;99.90;;;;;;5057012;28;20231;-82
2023/02/06 02:04:22;;;;;;;35.03;15.10;;;2.50;99.90;;;;;;5058068;28;20578;-84
2023/02/06 02:06:54;;;;;;;33.90;14.47;;;2.40;99.90;;;;;;5057680;28;20707;-82
2023/02/06 02:09:22;;;;;;;33.73;14.77;;;2.50;99.90;;;;;;5056795;28;20202;-83
2023/02/06 02:11:49;;;;;;;32.80;15.87;;;2.40;99.90;;;;;;5056931;28;20229;-84
2023/02/06 02:14:17;;;;;;;37.07;16.63;;;2.40;99.90;;;;;;5056907;28;20199;-84
2023/02/06 02:16:53;;;;;;;33.13;16.07;;;2.40;99.90;;;;;;5056766;28;20227;-83
2023/02/06 02:20:05;;;;;;;35.57;16.10;;;2.40;99.90;;;;;;5057573;28;20555;-83
2023/02/06 02:22:49;;;;;;;39.10;17.13;;;2.40;99.90;;;;;;5058071;28;20218;-83
2023/02/06 02:25:47;;;;;;;35.47;17.47;;;2.40;99.90;;;;;;5059530;28;20200;-83
2023/02/06 02:28:49;;;;;;;36.37;15.67;;;2.30;99.90;;;;;;5057086;28;20207;-83
2023/02/06 02:31:36;;;;;;;30.60;15.83;;;2.30;99.90;;;;;;5053775;28;20213;-84
2023/02/06 02:34:47;;;;;;;36.50;17.27;;;2.30;99.90;;;;;;5055577;28;20199;-81
2023/02/06 02:37:23;;;;;;;35.57;15.37;;;2.30;99.90;;;;;;5056051;28;20229;-81
2023/02/06 02:39:59;;;;;;;29.13;15.40;;;2.30;99.90;;;;;;5057379;28;20206;-82
2023/02/06 02:42:33;;;;;;;33.30;15.93;;;2.30;99.90;;;;;;5055291;28;20222;-82
2023/02/06 02:45:08;;;;;;;31.83;16.47;;;2.30;99.90;;;;;;5054885;28;20207;-84
2023/02/06 02:47:51;;;;;;;31.23;13.97;;;2.30;99.90;;;;;;5044486;28;20201;-82
2023/02/06 02:50:20;;;;;;;31.73;15.17;;;2.30;99.90;;;;;;5056212;28;20673;-82
2023/02/06 02:52:49;;;;;;;31.53;15.53;;;2.40;99.90;;;;;;5055110;28;20225;-83
2023/02/06 02:55:19;;;;;;;31.57;14.23;;;2.30;99.90;;;;;;5057481;28;20221;-84
2023/02/06 02:57:48;;;;;;;30.60;15.27;;;2.30;99.90;;;;;;5057283;28;20310;-83
2023/02/06 03:00:16;;;;;;;31.20;15.17;;;2.30;99.90;;;;;;5054591;28;20230;-83
2023/02/06 03:02:46;;;;;;;31.63;14.20;;;2.40;99.90;;;;;;5055186;28;20223;-83
2023/02/06 03:05:17;;;;;;;30.90;14.07;;;2.30;99.90;;;;;;5056075;28;20203;-83
2023/02/06 03:07:52;;;;;;;33.37;14.50;;;2.30;99.90;;;;;;5056204;28;20207;-82
2023/02/06 03:10:27;;;;;;;31.37;14.07;;;2.20;99.90;;;;;;5056425;28;20272;-84
2023/02/06 03:13:01;;;;;;;31.43;14.87;;;2.30;99.90;;;;;;5048462;28;20226;-82
2023/02/06 03:15:35;;;;;;;34.47;14.37;;;2.20;99.90;;;;;;5056066;28;20198;-82
2023/02/06 03:18:09;;;;;;;34.27;14.47;;;2.30;99.90;;;;;;5054990;28;20717;-81
2023/02/06 03:20:40;;;;;;;33.50;14.03;;;2.20;99.90;;;;;;5056132;28;20203;-84
2023/02/06 03:23:10;;;;;;;29.00;13.13;;;2.10;99.90;;;;;;5053890;28;20193;-84
2023/02/06 03:25:41;;;;;;;29.57;14.10;;;2.00;99.90;;;;;;5053516;28;20205;-88
2023/02/06 03:28:15;;;;;;;28.07;12.40;;;2.00;99.90;;;;;;5056218;28;20200;-83
2023/02/06 03:30:45;;;;;;;29.27;13.43;;;1.90;99.90;;;;;;5054374;28;20194;-83
2023/02/06 03:33:15;;;;;;;31.87;14.80;;;1.80;99.90;;;;;;5056073;28;20306;-83
2023/02/06 03:35:42;;;;;;;29.57;13.07;;;1.80;99.90;;;;;;5056831;28;20202;-83
2023/02/06 03:38:11;;;;;;;28.83;12.67;;;1.80;99.90;;;;;;5057062;28;20225;-82
2023/02/06 03:40:40;;;;;;;23.67;11.87;;;1.70;99.90;;;;;;5057399;28;20203;-82
2023/02/06 03:43:08;;;;;;;26.60;12.23;;;1.70;99.90;;;;;;5056071;28;20207;-83
2023/02/06 03:45:39;;;;;;;27.83;11.47;;;1.60;99.90;;;;;;5056647;28;20203;-83
2023/02/06 03:48:11;;;;;;;28.50;12.63;;;1.60;99.90;;;;;;5056894;28;20290;-83
2023/02/06 03:50:41;;;;;;;25.97;12.33;;;1.70;99.90;;;;;;5056405;28;20547;-83
2023/02/06 03:53:11;;;;;;;26.97;12.63;;;1.60;99.90;;;;;;5056455;28;20202;-82
2023/02/06 03:55:40;;;;;;;32.17;13.50;;;1.60;99.90;;;;;;5056694;28;20209;-82
2023/02/06 03:58:12;;;;;;;27.67;14.00;;;1.50;99.90;;;;;;5056346;28;20219;-82
2023/02/06 04:00:41;;;;;;;27.10;12.73;;;1.50;99.90;;;;;;5055471;28;20273;-82
2023/02/06 04:03:09;;;;;;;29.87;14.17;;;1.50;99.90;;;;;;5055980;28;20203;-81
2023/02/06 04:05:37;;;;;;;27.03;13.30;;;1.50;99.90;;;;;;5056144;28;20198;-83
2023/02/06 04:08:04;;;;;;;26.70;14.43;;;1.50;99.90;;;;;;5057851;28;20282;-83
2023/02/06 04:10:32;;;;;;;28.53;13.40;;;1.50;99.90;;;;;;5060572;28;20324;-83
2023/02/06 04:12:59;;;;;;;32.23;15.00;;;1.60;99.90;;;;;;5060630;28;20199;-84
2023/02/06 04:15:26;;;;;;;28.67;13.17;;;1.50;99.90;;;;;;5059861;28;20230;-82
2023/02/06 04:17:52;;;;;;;30.93;14.83;;;1.50;99.90;;;;;;5059297;28;20258;-83
2023/02/06 04:20:20;;;;;;;31.57;14.40;;;1.50;99.90;;;;;;5059087;28;20287;-79
2023/02/06 04:22:47;;;;;;;31.37;13.93;;;1.50;99.90;;;;;;5061087;28;20259;-82
2023/02/06 04:25:13;;;;;;;30.87;13.80;;;1.50;99.90;;;;;;5061977;28;20564;-82
2023/02/06 04:27:42;;;;;;;33.27;15.53;;;1.50;99.90;;;;;;5062311;28;20203;-79
2023/02/06 04:30:10;;;;;;;31.67;14.57;;;1.50;99.90;;;;;;5060092;28;20191;-82
2023/02/06 04:32:36;;;;;;;31.50;14.53;;;1.50;99.90;;;;;;5062498;28;20302;-83
2023/02/06 04:35:04;;;;;;;30.23;15.00;;;1.50;99.90;;;;;;5061552;28;20209;-82
2023/02/06 04:37:31;;;;;;;37.50;16.17;;;1.50;99.90;;;;;;5062524;28;20234;-82
2023/02/06 04:39:58;;;;;;;34.20;14.47;;;1.40;99.90;;;;;;5062507;28;20605;-83
2023/02/06 04:42:25;;;;;;;34.77;15.83;;;1.40;99.90;;;;;;5062282;28;20621;-82
2023/02/06 04:44:53;;;;;;;34.00;14.77;;;1.50;99.90;;;;;;5062553;28;20241;-83
2023/02/06 04:47:20;;;;;;;32.57;14.90;;;1.50;99.90;;;;;;5062045;28;20729;-83
2023/02/06 04:49:47;;;;;;;34.87;15.13;;;1.40;99.90;;;;;;5062149;28;20229;-82
2023/02/06 04:52:14;;;;;;;31.93;15.23;;;1.30;99.90;;;;;;5061852;28;20237;-82
2023/02/06 04:54:41;;;;;;;33.10;14.07;;;1.30;99.90;;;;;;5062195;28;20302;-82
2023/02/06 04:57:07;;;;;;;27.47;13.30;;;1.40;99.90;;;;;;5061778;28;20234;-82
2023/02/06 04:59:34;;;;;;;29.40;13.07;;;1.30;99.90;;;;;;5062587;28;20221;-82
2023/02/06 05:02:02;;;;;;;30.23;13.43;;;1.30;99.90;;;;;;5062144;28;20238;-82
2023/02/06 05:04:29;;;;;;;32.40;15.97;;;1.40;99.90;;;;;;5061792;28;20674;-82
2023/02/06 05:06:56;;;;;;;29.43;14.63;;;1.30;99.90;;;;;;5062327;28;20286;-82
2023/02/06 05:09:23;;;;;;;32.50;14.03;;;1.30;99.90;;;;;;5061972;28;20230;-82
2023/02/06 05:11:49;;;;;;;30.00;16.07;;;1.20;99.90;;;;;;5058198;28;20688;-82
2023/02/06 05:14:16;;;;;;;26.53;12.83;;;1.10;99.90;;;;;;5059695;28;20195;-83
2023/02/06 05:16:43;;;;;;;28.97;13.13;;;1.10;99.90;;;;;;5061169;28;20259;-82
2023/02/06 05:19:11;;;;;;;29.73;14.70;;;1.10;99.90;;;;;;5060567;28;20207;-82
2023/02/06 05:21:38;;;;;;;31.30;13.23;;;1.20;99.90;;;;;;5059890;28;20285;-82
2023/02/06 05:24:05;;;;;;;31.53;13.83;;;1.00;99.90;;;;;;5061308;28;20736;-83
2023/02/06 05:26:32;;;;;;;29.67;13.70;;;1.00;99.90;;;;;;5061063;28;20619;-82
2023/02/06 05:28:59;;;;;;;29.67;12.77;;;0.90;99.90;;;;;;5060925;28;20294;-82
2023/02/06 05:31:25;;;;;;;27.10;12.87;;;0.90;99.90;;;;;;5060560;28;20211;-83
2023/02/06 05:33:53;;;;;;;30.57;13.00;;;0.90;99.90;;;;;;5059748;28;20203;-83
2023/02/06 05:36:22;;;;;;;29.90;13.43;;;0.80;99.90;;;;;;5059619;28;20218;-82
2023/02/06 05:38:49;;;;;;;31.37;13.83;;;0.80;99.90;;;;;;5060269;28;20286;-83
2023/02/06 05:41:17;;;;;;;31.07;14.23;;;0.90;99.90;;;;;;5076952;28;20321;-82
2023/02/06 05:43:43;;;;;;;30.80;13.93;;;0.90;99.90;;;;;;5061553;28;20230;-82
2023/02/06 05:46:11;;;;;;;32.90;14.00;;;0.90;99.90;;;;;;5060458;28;20568;-83
2023/02/06 05:48:38;;;;;;;32.43;14.00;;;1.00;99.90;;;;;;5060862;28;20321;-82
2023/02/06 05:51:05;;;;;;;32.33;15.57;;;0.90;99.90;;;;;;5059324;28;20245;-82
2023/02/06 05:53:33;;;;;;;28.17;13.60;;;0.70;99.90;;;;;;5060331;28;20211;-83
2023/02/06 05:56:00;;;;;;;32.67;13.70;;;0.60;99.90;;;;;;5061130;28;20214;-82
2023/02/06 05:58:27;;;;;;;33.70;16.33;;;0.60;99.90;;;;;;5059374;28;20223;-82
2023/02/06 06:00:54;;;;;;;33.97;13.97;;;0.70;99.90;;;;;;5059486;28;20289;-83
2023/02/06 06:03:21;;;;;;;36.30;18.00;;;0.60;99.90;;;;;;5061211;28;20742;-82
2023/02/06 06:05:47;;;;;;;32.17;14.23;;;0.70;99.90;;;;;;5060821;28;20207;-83
2023/02/06 06:08:14;;;;;;;37.63;15.57;;;0.80;99.90;;;;;;5060134;28;20203;-82
2023/02/06 06:10:43;;;;;;;36.97;15.83;;;0.70;99.90;;;;;;5060796;28;20675;-82
2023/02/06 06:13:09;;;;;;;33.83;16.17;;;0.70;99.90;;;;;;5061286;28;20253;-83
2023/02/06 06:15:36;;;;;;;35.20;15.10;;;0.70;99.90;;;;;;5058899;28;20238;-83
2023/02/06 06:18:03;;;;;;;32.73;16.17;;;0.70;99.90;;;;;;5060087;28;20310;-82
2023/02/06 06:20:33;;;;;;;37.30;14.27;;;0.70;99.90;;;;;;5069662;28;20298;-83
2023/02/06 06:23:00;;;;;;;33.60;15.17;;;0.80;99.90;;;;;;5063698;28;20210;-83
2023/02/06 06:25:27;;;;;;;36.37;17.23;;;0.90;99.90;;;;;;5061230;28;20202;-82
2023/02/06 06:27:55;;;;;;;33.47;14.27;;;0.80;99.90;;;;;;5067821;28;20235;-82
2023/02/06 06:30:22;;;;;;;36.13;14.20;;;0.70;99.90;;;;;;5060396;28;20203;-82
2023/02/06 06:32:49;;;;;;;30.07;13.37;;;0.60;99.90;;;;;;5067016;28;20219;-82
2023/02/06 06:35:16;;;;;;;29.50;12.67;;;0.60;99.90;;;;;;5060135;28;20202;-82
2023/02/06 06:37:43;;;;;;;32.53;14.00;;;0.70;99.90;;;;;;5059647;28;20592;-83
2023/02/06 06:40:11;;;;;;;33.80;14.30;;;0.70;99.90;;;;;;5059328;28;20604;-83
2023/02/06 06:42:38;;;;;;;33.40;16.67;;;0.80;99.90;;;;;;5060467;28;20225;-83
2023/02/06 06:45:07;;;;;;;29.00;13.27;;;0.90;99.90;;;;;;5059582;28;20223;-83
2023/02/06 06:47:34;;;;;;;35.30;13.80;;;0.70;99.90;;;;;;5059968;28;20215;-82
2023/02/06 06:50:00;;;;;;;32.17;14.40;;;0.80;99.90;;;;;;5059791;28;20293;-83
2023/02/06 06:52:27;;;;;;;28.93;13.17;;;0.90;99.90;;;;;;5060890;28;20237;-83
2023/02/06 06:54:54;;;;;;;29.80;15.13;;;0.90;99.90;;;;;;5060802;28;20301;-83
2023/02/06 06:57:21;;;;;;;36.37;14.87;;;0.90;99.90;;;;;;5060555;28;20229;-83
2023/02/06 06:59:48;;;;;;;29.83;13.17;;;0.90;99.90;;;;;;5057601;28;20640;-83
2023/02/06 07:02:16;;;;;;;30.70;14.77;;;0.90;99.90;;;;;;5056739;28;20241;-83
2023/02/06 07:04:43;;;;;;;28.17;13.03;;;0.90;99.90;;;;;;5060253;28;20217;-83
2023/02/06 07:07:10;;;;;;;31.23;15.43;;;0.90;99.90;;;;;;5058874;28;20217;-83
2023/02/06 07:09:37;;;;;;;35.00;14.60;;;0.90;99.90;;;;;;5058998;28;20861;-83
2023/02/06 07:12:04;;;;;;;33.10;13.70;;;1.00;99.90;;;;;;5072289;28;20274;-82
2023/02/06 07:14:31;;;;;;;37.27;13.83;;;1.10;99.90;;;;;;5058621;28;20657;-83
2023/02/06 07:16:58;;;;;;;29.90;13.20;;;1.10;99.90;;;;;;5057536;28;20281;-83
2023/02/06 07:19:27;;;;;;;34.17;14.03;;;1.10;99.90;;;;;;5057697;28;20261;-83
2023/02/06 07:21:53;;;;;;;32.30;13.50;;;1.10;99.90;;;;;;5057890;28;20223;-83
2023/02/06 07:24:20;;;;;;;30.73;13.30;;;1.10;99.90;;;;;;5057423;28;20301;-82
2023/02/06 07:26:47;;;;;;;31.53;13.43;;;1.00;99.90;;;;;;5058928;28;20214;-83
2023/02/06 07:29:14;;;;;;;34.97;15.13;;;1.00;99.90;;;;;;5057900;28;20289;-83
2023/02/06 07:31:41;;;;;;;41.33;14.73;;;1.00;99.90;;;;;;5058316;28;20315;-82
2023/02/06 07:34:08;;;;;;;30.80;12.70;;;1.10;99.90;;;;;;5057804;28;20203;-83
2023/02/06 07:36:36;;;;;;;34.90;16.30;;;1.10;99.90;;;;;;5056290;28;20206;-82
2023/02/06 07:39:04;;;;;;;32.63;16.17;;;1.10;99.90;;;;;;5058572;28;20568;-83
2023/02/06 07:41:31;;;;;;;35.60;14.27;;;1.10;99.90;;;;;;5057896;28;20223;-83
2023/02/06 07:43:58;;;;;;;33.50;14.30;;;1.20;99.90;;;;;;5057642;28;20205;-83
2023/02/06 07:46:25;;;;;;;33.83;14.07;;;1.20;99.90;;;;;;5057032;28;20320;-83
2023/02/06 07:48:51;;;;;;;35.40;13.87;;;1.10;99.90;;;;;;5037624;28;20229;-83
2023/02/06 07:51:18;;;;;;;33.20;14.03;;;1.20;99.90;;;;;;5036180;28;20228;-84
2023/02/06 07:53:48;;;;;;;36.40;14.70;;;1.30;99.90;;;;;;5054186;28;20206;-83
2023/02/06 07:56:17;;;;;;;31.10;13.00;;;1.10;99.90;;;;;;5065040;28;20718;-83
2023/02/06 07:58:46;;;;;;;31.63;13.03;;;1.20;99.90;;;;;;5057050;28;20229;-82
2023/02/06 08:01:13;;;;;;;33.03;13.07;;;1.20;99.90;;;;;;5064939;28;20230;-82
2023/02/06 08:03:39;;;;;;;32.43;13.87;;;1.30;99.90;;;;;;5069240;28;20206;-83
2023/02/06 08:06:10;;;;;;;30.60;12.70;;;1.20;99.90;;;;;;5076270;28;20568;-82
2023/02/06 08:08:37;;;;;;;38.23;15.33;;;1.10;99.90;;;;;;5065699;28;20270;-83
2023/02/06 08:11:06;;;;;;;25.73;11.97;;;1.20;99.90;;;;;;5058103;28;20253;-83
2023/02/06 08:13:34;;;;;;;33.60;12.97;;;1.10;99.90;;;;;;5058086;28;20215;-83
2023/02/06 08:16:04;;;;;;;38.10;13.20;;;1.20;99.90;;;;;;5057671;28;20199;-83
2023/02/06 08:18:30;;;;;;;32.40;14.37;;;1.10;99.90;;;;;;5058376;28;20237;-83
2023/02/06 08:21:01;;;;;;;32.73;15.07;;;1.30;99.90;;;;;;5058469;28;20226;-83
2023/02/06 08:23:28;;;;;;;29.90;12.70;;;1.30;99.90;;;;;;5057361;28;20262;-83
2023/02/06 08:26:01;;;;;;;32.37;13.33;;;1.30;99.90;;;;;;5058677;28;20207;-83
2023/02/06 08:28:30;;;;;;;31.33;12.37;;;1.30;99.90;;;;;;5058174;28;20241;-83
2023/02/06 08:30:56;;;;;;;30.67;13.50;;;1.10;99.90;;;;;;5058315;28;20646;-83
2023/02/06 08:33:23;;;;;;;32.20;15.07;;;1.20;99.90;;;;;;5058244;28;20203;-83
2023/02/06 08:35:50;;;;;;;32.33;12.30;;;1.20;99.90;;;;;;5057503;28;20203;-83
2023/02/06 08:38:17;;;;;;;33.13;13.27;;;1.30;99.90;;;;;;5058513;28;20222;-83
2023/02/06 08:40:44;;;;;;;33.00;13.20;;;1.30;99.90;;;;;;5058191;28;20211;-82
2023/02/06 08:43:10;;;;;;;35.67;14.53;;;1.20;99.90;;;;;;5057297;28;20567;-83
2023/02/06 08:45:39;;;;;;;31.07;13.53;;;1.30;99.90;;;;;;5076547;28;20201;-83
2023/02/06 08:48:06;;;;;;;32.83;12.73;;;1.30;99.90;;;;;;5069687;28;20199;-83
2023/02/06 08:50:33;;;;;;;32.90;13.40;;;1.40;99.90;;;;;;5055414;28;20281;-82
2023/02/06 08:53:01;;;;;;;28.10;12.53;;;1.40;99.90;;;;;;5056155;28;20670;-83
2023/02/06 08:55:28;;;;;;;26.33;12.07;;;1.50;99.90;;;;;;5059614;28;20898;-83
2023/02/06 08:57:55;;;;;;;30.97;15.57;;;1.40;99.90;;;;;;5061064;28;20234;-83
2023/02/06 09:00:22;;;;;;;32.30;14.83;;;1.40;99.90;;;;;;5061447;28;20313;-83
2023/02/06 09:02:52;;;;;;;30.27;15.33;;;1.20;99.90;;;;;;5061618;28;20218;-83
2023/02/06 09:05:18;;;;;;;32.97;15.03;;;1.40;99.90;;;;;;5059803;28;20199;-83
2023/02/06 09:07:45;;;;;;;32.70;13.97;;;1.50;99.90;;;;;;5065277;28;20213;-83
2023/02/06 09:10:12;;;;;;;29.67;13.10;;;1.60;99.90;;;;;;5074138;28;20190;-82
2023/02/06 09:12:39;;;;;;;37.07;15.43;;;1.80;99.90;;;;;;5061014;28;20292;-82
2023/02/06 09:15:07;;;;;;;33.43;13.90;;;1.70;99.90;;;;;;5074309;28;20285;-83
2023/02/06 09:17:34;;;;;;;28.20;12.50;;;1.80;99.90;;;;;;5067543;28;20217;-82
2023/02/06 09:20:04;;;;;;;32.53;13.00;;;1.90;99.90;;;;;;5060922;28;20282;-82
2023/02/06 09:22:32;;;;;;;29.27;13.17;;;2.10;99.90;;;;;;5060315;28;20286;-82
2023/02/06 09:24:59;;;;;;;28.87;14.53;;;2.20;99.90;;;;;;5061053;28;20230;-83
2023/02/06 09:27:26;;;;;;;29.20;13.20;;;2.30;99.90;;;;;;5061998;28;20207;-84
2023/02/06 09:29:53;;;;;;;35.00;13.00;;;2.20;99.90;;;;;;5059599;28;20199;-83
2023/02/06 09:32:19;;;;;;;26.60;11.70;;;2.10;99.90;;;;;;5059045;28;20691;-83
2023/02/06 09:34:46;;;;;;;27.57;12.97;;;2.00;99.90;;;;;;5059711;28;20196;-83
2023/02/06 09:37:14;;;;;;;30.50;12.07;;;1.70;99.90;;;;;;5060032;28;20663;-83
2023/02/06 09:39:41;;;;;;;33.57;12.97;;;2.00;99.90;;;;;;5060974;28;20301;-83
2023/02/06 09:42:15;;;;;;;27.53;12.03;;;1.90;99.90;;;;;;5060448;28;20640;-83
2023/02/06 09:44:47;;;;;;;28.63;12.53;;;2.20;99.90;;;;;;5061093;28;20215;-83
2023/02/06 09:47:21;;;;;;;30.67;12.70;;;2.30;99.90;;;;;;5060731;28;20214;-83
2023/02/06 09:49:56;;;;;;;33.07;14.00;;;2.30;99.90;;;;;;5060671;28;20206;-83
2023/02/06 09:52:52;;;;;;;34.00;13.57;;;2.50;99.90;;;;;;5058784;28;20604;-84
2023/02/06 09:55:26;;;;;;;31.03;13.07;;;2.50;99.90;;;;;;5061445;28;20581;-84
2023/02/06 09:58:00;;;;;;;31.70;14.13;;;2.50;99.90;;;;;;5059846;28;20203;-83
2023/02/06 10:00:38;;;;;;;32.73;14.57;;;2.70;99.90;;;;;;5060375;28;20730;-83
2023/02/06 10:03:37;;;;;;;34.73;13.67;;;2.80;99.90;;;;;;5060215;28;20207;-83
2023/02/06 10:06:14;;;;;;;32.30;11.97;;;3.00;99.90;;;;;;5061267;28;20285;-83
2023/02/06 10:08:48;;;;;;;27.33;12.30;;;3.10;99.90;;;;;;5060871;28;20659;-83
2023/02/06 10:11:21;;;;;;;32.03;13.43;;;3.20;99.90;;;;;;5061266;28;20650;-83
2023/02/06 10:13:54;;;;;;;29.53;11.37;;;3.20;99.90;;;;;;5061227;28;20231;-83
2023/02/06 10:16:39;;;;;;;32.03;12.70;;;3.20;99.90;;;;;;5061074;28;20203;-83
2023/02/06 10:19:14;;;;;;;31.23;12.77;;;3.50;99.90;;;;;;5060415;28;20246;-83
2023/02/06 10:21:46;;;;;;;31.57;12.80;;;3.70;99.90;;;;;;5059098;28;20223;-82
2023/02/06 10:24:22;;;;;;;33.53;13.23;;;3.80;99.90;;;;;;5060270;28;20195;-84
2023/02/06 10:26:51;;;;;;;25.43;12.17;;;3.90;99.90;;;;;;5059982;28;20202;-83
2023/02/06 10:29:24;;;;;;;35.03;12.80;;;4.20;99.90;;;;;;5059955;28;20213;-82
2023/02/06 10:32:05;;;;;;;32.83;12.70;;;4.10;99.90;;;;;;5058934;28;20229;-81
2023/02/06 10:34:46;;;;;;;27.63;10.33;;;4.00;99.90;;;;;;5059324;28;20258;-83
2023/02/06 10:37:30;;;;;;;24.17;11.33;;;3.60;99.90;;;;;;5059637;28;20199;-83
2023/02/06 10:40:12;;;;;;;25.87;10.70;;;3.40;99.90;;;;;;5059316;28;20226;-81
2023/02/06 10:42:50;;;;;;;29.07;11.07;;;3.70;99.90;;;;;;5059478;28;20234;-80
2023/02/06 10:45:29;;;;;;;28.00;12.43;;;3.90;99.90;;;;;;5059689;28;20217;-81
2023/02/06 10:48:03;;;;;;;34.03;12.13;;;4.00;99.90;;;;;;5059471;28;20651;-81
2023/02/06 10:50:34;;;;;;;30.77;13.00;;;3.70;99.90;;;;;;5059720;28;20199;-82
2023/02/06 10:53:06;;;;;;;27.33;11.53;;;3.60;99.90;;;;;;5059487;28;20209;-82
2023/02/06 10:55:41;;;;;;;29.90;12.50;;;3.70;99.90;;;;;;5059421;28;20874;-81
2023/02/06 10:58:15;;;;;;;30.33;11.87;;;3.80;99.90;;;;;;5059408;28;20258;-82
2023/02/06 11:00:45;;;;;;;27.67;11.57;;;3.80;99.90;;;;;;5059539;28;20710;-81
2023/02/06 11:03:17;;;;;;;30.20;11.97;;;4.00;99.90;;;;;;5058867;28;20210;-81
2023/02/06 11:05:43;;;;;;;27.13;11.53;;;4.20;99.90;;;;;;5059507;28;20213;-82
2023/02/06 11:08:17;;;;;;;25.53;10.87;;;4.10;99.90;;;;;;5060013;28;20693;-82
2023/02/06 11:10:46;;;;;;;24.57;11.60;;;4.10;99.90;;;;;;5060826;28;20691;-82
2023/02/06 11:13:23;;;;;;;32.90;12.83;;;4.10;99.90;;;;;;5059819;28;20317;-82
2023/02/06 11:15:57;;;;;;;29.97;12.63;;;4.00;99.90;;;;;;5059802;28;20203;-81
2023/02/06 11:18:28;;;;;;;27.60;11.40;;;4.00;99.90;;;;;;5058879;28;20207;-83
2023/02/06 11:20:55;;;;;;;26.03;10.93;;;4.00;99.90;;;;;;5058347;28;20230;-82
2023/02/06 11:23:23;;;;;;;31.57;12.10;;;3.60;99.90;;;;;;5059112;28;20729;-82
2023/02/06 11:26:02;;;;;;;32.83;12.23;;;3.40;99.90;;;;;;5056597;28;20206;-82
2023/02/06 11:28:31;;;;;;;27.23;12.40;;;3.50;99.90;;;;;;5050087;28;20210;-82
2023/02/06 11:31:00;;;;;;;26.33;9.90;;;3.60;99.90;;;;;;5068409;28;20215;-82
2023/02/06 11:33:35;;;;;;;22.97;9.00;;;3.40;99.90;;;;;;5059127;28;20274;-82
2023/02/06 11:36:04;;;;;;;22.17;9.33;;;3.20;99.90;;;;;;5060083;28;20262;-82
2023/02/06 11:38:32;;;;;;;27.27;10.50;;;3.00;99.90;;;;;;5058408;28;20254;-82
2023/02/06 11:41:02;;;;;;;24.80;10.77;;;3.00;99.90;;;;;;5057095;28;20562;-82
2023/02/06 11:43:31;;;;;;;24.27;10.23;;;3.00;99.90;;;;;;5058086;28;20213;-83
2023/02/06 11:46:14;;;;;;;30.13;11.50;;;3.10;99.90;;;;;;5059235;28;20217;-82
2023/02/06 11:48:42;;;;;;;26.03;11.73;;;3.10;99.90;;;;;;5058248;28;20199;-82
2023/02/06 11:51:10;;;;;;;25.63;11.47;;;3.10;99.90;;;;;;5056407;28;20235;-82
2023/02/06 11:53:38;;;;;;;23.60;10.33;;;3.20;99.90;;;;;;5056367;28;20276;-82
2023/02/06 11:56:19;;;;;;;25.53;10.50;;;3.40;99.90;;;;;;5057663;28;20285;-82
2023/02/06 11:58:48;;;;;;;21.67;10.53;;;3.40;99.90;;;;;;5056168;28;20289;-83
2023/02/06 12:01:20;;;;;;;26.83;10.27;;;3.30;99.90;;;;;;5056216;28;20223;-82
2023/02/06 12:03:56;;;;;;;22.73;9.27;;;3.40;99.90;;;;;;5057632;28;20218;-82
2023/02/06 12:06:29;;;;;;;25.37;9.83;;;3.40;99.90;;;;;;5057199;28;20208;-82
2023/02/06 12:08:58;;;;;;;20.20;9.30;;;3.40;99.90;;;;;;5058592;28;20257;-82
2023/02/06 12:11:33;;;;;;;21.03;8.97;;;3.40;99.90;;;;;;5057927;28;20223;-82
2023/02/06 12:14:05;;;;;;;20.90;9.73;;;3.30;99.90;;;;;;5056099;28;20203;-82
2023/02/06 12:16:34;;;;;;;21.13;9.57;;;3.30;99.90;;;;;;5058133;28;20209;-82
2023/02/06 12:19:01;;;;;;;25.20;9.90;;;3.40;99.90;;;;;;5057724;28;20237;-82
2023/02/06 12:21:38;;;;;;;22.53;10.50;;;3.50;99.90;;;;;;5056365;28;20313;-82
2023/02/06 12:24:30;;;;;;;19.90;8.80;;;3.40;99.90;;;;;;5056936;28;20669;-82
2023/02/06 12:27:05;;;;;;;21.03;9.60;;;3.40;99.90;;;;;;5051216;28;20666;-82
2023/02/06 12:29:36;;;;;;;20.77;9.77;;;3.40;99.90;;;;;;5057309;28;20206;-82
2023/02/06 12:32:08;;;;;;;18.03;9.10;;;3.70;99.90;;;;;;5061546;28;20306;-81
2023/02/06 12:34:52;;;;;;;24.33;10.73;;;4.00;99.90;;;;;;5062018;28;20199;-81
2023/02/06 12:37:30;;;;;;;22.23;9.07;;;3.80;99.90;;;;;;5061060;28;20232;-83
2023/02/06 12:39:57;;;;;;;19.67;8.70;;;3.60;99.90;;;;;;5061822;28;20223;-82
2023/02/06 12:42:39;;;;;;;18.77;8.53;;;3.60;99.90;;;;;;5061689;28;20233;-82
2023/02/06 12:45:30;;;;;;;21.43;8.47;;;3.50;99.90;;;;;;5061203;28;20553;-82
2023/02/06 12:48:03;;;;;;;23.27;9.67;;;3.60;99.90;;;;;;5061592;28;20207;-83
2023/02/06 12:50:33;;;;;;;19.70;8.53;;;3.50;99.90;;;;;;5071411;28;20221;-83
2023/02/06 12:53:04;;;;;;;18.43;8.37;;;3.30;99.90;;;;;;5074059;28;20217;-83